sensor_id;sensor_type;location;lat;lon;timestamp;P1;durP1;ratioP1;P2;durP2;ratioP2
13185;SDS011;6658;53.080;7.428;2023-07-29T00:00:42;10.43;;;9.57;;
13185;SDS011;6658;53.080;7.428;2023-07-29T00:03:08;10.23;;;9.10;;
13185;SDS011;6658;53.080;7.428;2023-07-29T00:05:34;10.60;;;9.60;;
13185;SDS011;6658;53.080;7.428;2023-07-29T00:08:01;11.87;;;10.77;;
13185;SDS011;6658;53.080;7.428;2023-07-29T00:10:27;11.33;;;10.23;;
13185;SDS011;6658;53.080;7.428;2023-07-29T00:12:53;11.80;;;10.70;;
13185;SDS011;6658;53.080;7.428;2023-07-29T00:15:18;10.73;;;9.73;;
13185;SDS011;6658;53.080;7.428;2023-07-29T00:17:44;12.03;;;10.70;;
13185;SDS011;6658;53.080;7.428;2023-07-29T00:20:10;11.37;;;10.40;;
13185;SDS011;6658;53.080;7.428;2023-07-29T00:22:35;12.63;;;11.43;;
13185;SDS011;6658;53.080;7.428;2023-07-29T00:25:01;12.63;;;11.53;;
13185;SDS011;6658;53.080;7.428;2023-07-29T00:27:27;11.50;;;10.43;;
13185;SDS011;6658;53.080;7.428;2023-07-29T00:29:53;12.67;;;11.17;;
13185;SDS011;6658;53.080;7.428;2023-07-29T00:32:18;13.43;;;11.47;;
13185;SDS011;6658;53.080;7.428;2023-07-29T00:34:44;13.63;;;12.27;;
13185;SDS011;6658;53.080;7.428;2023-07-29T00:37:10;13.07;;;11.87;;
13185;SDS011;6658;53.080;7.428;2023-07-29T00:39:36;13.67;;;12.03;;
13185;SDS011;6658;53.080;7.428;2023-07-29T00:42:02;13.60;;;12.30;;
13185;SDS011;6658;53.080;7.428;2023-07-29T00:44:29;13.57;;;12.27;;
13185;SDS011;6658;53.080;7.428;2023-07-29T00:46:56;13.27;;;12.07;;
13185;SDS011;6658;53.080;7.428;2023-07-29T00:49:23;13.90;;;12.70;;
13185;SDS011;6658;53.080;7.428;2023-07-29T00:51:49;13.93;;;12.57;;
13185;SDS011;6658;53.080;7.428;2023-07-29T00:54:15;13.50;;;12.20;;
13185;SDS011;6658;53.080;7.428;2023-07-29T00:56:41;14.03;;;12.73;;
13185;SDS011;6658;53.080;7.428;2023-07-29T00:59:07;14.83;;;12.90;;
13185;SDS011;6658;53.080;7.428;2023-07-29T01:01:33;14.47;;;13.07;;
13185;SDS011;6658;53.080;7.428;2023-07-29T01:03:59;13.67;;;12.37;;
13185;SDS011;6658;53.080;7.428;2023-07-29T01:06:41;15.17;;;13.17;;
13185;SDS011;6658;53.080;7.428;2023-07-29T01:14:41;14.07;;;12.60;;
13185;SDS011;6658;53.080;7.428;2023-07-29T01:17:21;13.83;;;12.50;;
13185;SDS011;6658;53.080;7.428;2023-07-29T01:22:23;13.60;;;12.30;;
13185;SDS011;6658;53.080;7.428;2023-07-29T01:24:49;13.53;;;12.23;;
13185;SDS011;6658;53.080;7.428;2023-07-29T01:27:15;12.80;;;11.47;;
13185;SDS011;6658;53.080;7.428;2023-07-29T01:29:41;12.40;;;11.20;;
13185;SDS011;6658;53.080;7.428;2023-07-29T01:32:08;12.63;;;11.43;;
13185;SDS011;6658;53.080;7.428;2023-07-29T01:34:41;13.20;;;11.90;;
13185;SDS011;6658;53.080;7.428;2023-07-29T01:37:14;13.70;;;11.77;;
13185;SDS011;6658;53.080;7.428;2023-07-29T01:39:44;12.63;;;11.43;;
13185;SDS011;6658;53.080;7.428;2023-07-29T01:42:11;12.90;;;11.70;;
13185;SDS011;6658;53.080;7.428;2023-07-29T01:44:37;12.03;;;10.87;;
13185;SDS011;6658;53.080;7.428;2023-07-29T01:47:03;12.43;;;11.33;;
13185;SDS011;6658;53.080;7.428;2023-07-29T01:49:28;12.33;;;11.13;;
13185;SDS011;6658;53.080;7.428;2023-07-29T01:51:54;13.53;;;12.07;;
13185;SDS011;6658;53.080;7.428;2023-07-29T01:54:20;13.93;;;12.53;;
13185;SDS011;6658;53.080;7.428;2023-07-29T01:56:45;13.57;;;12.27;;
13185;SDS011;6658;53.080;7.428;2023-07-29T01:59:11;13.13;;;11.70;;
13185;SDS011;6658;53.080;7.428;2023-07-29T02:01:38;13.83;;;12.43;;
13185;SDS011;6658;53.080;7.428;2023-07-29T02:04:04;14.17;;;12.53;;
13185;SDS011;6658;53.080;7.428;2023-07-29T02:06:29;14.27;;;12.77;;
13185;SDS011;6658;53.080;7.428;2023-07-29T02:08:55;14.90;;;13.43;;
13185;SDS011;6658;53.080;7.428;2023-07-29T02:11:21;15.10;;;13.70;;
13185;SDS011;6658;53.080;7.428;2023-07-29T02:13:52;14.60;;;13.10;;
13185;SDS011;6658;53.080;7.428;2023-07-29T02:16:21;16.47;;;14.00;;
13185;SDS011;6658;53.080;7.428;2023-07-29T02:18:47;17.23;;;14.80;;
13185;SDS011;6658;53.080;7.428;2023-07-29T02:21:14;15.87;;;14.17;;
13185;SDS011;6658;53.080;7.428;2023-07-29T02:23:40;15.47;;;13.93;;
13185;SDS011;6658;53.080;7.428;2023-07-29T02:26:06;17.43;;;14.37;;
13185;SDS011;6658;53.080;7.428;2023-07-29T02:28:32;16.17;;;14.43;;
13185;SDS011;6658;53.080;7.428;2023-07-29T02:31:13;17.20;;;15.03;;
13185;SDS011;6658;53.080;7.428;2023-07-29T02:33:46;17.77;;;14.73;;
13185;SDS011;6658;53.080;7.428;2023-07-29T02:36:13;16.90;;;14.93;;
13185;SDS011;6658;53.080;7.428;2023-07-29T02:38:39;19.17;;;15.60;;
13185;SDS011;6658;53.080;7.428;2023-07-29T02:41:05;17.50;;;14.93;;
13185;SDS011;6658;53.080;7.428;2023-07-29T02:43:31;16.47;;;14.73;;
13185;SDS011;6658;53.080;7.428;2023-07-29T02:45:57;19.37;;;15.13;;
13185;SDS011;6658;53.080;7.428;2023-07-29T02:48:22;19.03;;;15.43;;
13185;SDS011;6658;53.080;7.428;2023-07-29T02:50:49;16.03;;;14.33;;
13185;SDS011;6658;53.080;7.428;2023-07-29T02:53:17;18.23;;;15.60;;
13185;SDS011;6658;53.080;7.428;2023-07-29T02:55:42;17.67;;;14.90;;
13185;SDS011;6658;53.080;7.428;2023-07-29T02:58:08;17.93;;;15.97;;
13185;SDS011;6658;53.080;7.428;2023-07-29T03:00:34;18.00;;;15.10;;
13185;SDS011;6658;53.080;7.428;2023-07-29T03:03:00;21.27;;;16.17;;
13185;SDS011;6658;53.080;7.428;2023-07-29T03:05:29;18.87;;;16.47;;
13185;SDS011;6658;53.080;7.428;2023-07-29T03:07:55;19.23;;;15.60;;
13185;SDS011;6658;53.080;7.428;2023-07-29T03:10:21;20.17;;;16.30;;
13185;SDS011;6658;53.080;7.428;2023-07-29T03:12:47;18.70;;;15.67;;
13185;SDS011;6658;53.080;7.428;2023-07-29T03:15:12;20.87;;;16.20;;
13185;SDS011;6658;53.080;7.428;2023-07-29T03:17:38;17.20;;;15.20;;
13185;SDS011;6658;53.080;7.428;2023-07-29T03:20:04;18.60;;;15.27;;
13185;SDS011;6658;53.080;7.428;2023-07-29T03:22:30;19.37;;;15.17;;
13185;SDS011;6658;53.080;7.428;2023-07-29T03:24:56;16.60;;;14.80;;
13185;SDS011;6658;53.080;7.428;2023-07-29T03:27:22;17.77;;;15.30;;
13185;SDS011;6658;53.080;7.428;2023-07-29T03:29:48;18.20;;;15.40;;
13185;SDS011;6658;53.080;7.428;2023-07-29T03:32:13;17.00;;;14.63;;
13185;SDS011;6658;53.080;7.428;2023-07-29T03:34:39;16.67;;;14.70;;
13185;SDS011;6658;53.080;7.428;2023-07-29T03:37:05;20.87;;;15.23;;
13185;SDS011;6658;53.080;7.428;2023-07-29T03:39:31;17.03;;;14.73;;
13185;SDS011;6658;53.080;7.428;2023-07-29T03:41:57;17.87;;;15.00;;
13185;SDS011;6658;53.080;7.428;2023-07-29T03:44:23;18.03;;;14.50;;
13185;SDS011;6658;53.080;7.428;2023-07-29T03:46:49;17.53;;;13.87;;
13185;SDS011;6658;53.080;7.428;2023-07-29T03:49:14;17.50;;;13.90;;
13185;SDS011;6658;53.080;7.428;2023-07-29T03:51:40;15.40;;;13.57;;
13185;SDS011;6658;53.080;7.428;2023-07-29T03:54:06;15.63;;;13.57;;
13185;SDS011;6658;53.080;7.428;2023-07-29T03:56:32;16.70;;;13.70;;
13185;SDS011;6658;53.080;7.428;2023-07-29T03:59:04;15.73;;;13.00;;
13185;SDS011;6658;53.080;7.428;2023-07-29T04:01:30;16.47;;;13.43;;
13185;SDS011;6658;53.080;7.428;2023-07-29T04:03:56;16.57;;;13.30;;
13185;SDS011;6658;53.080;7.428;2023-07-29T04:06:23;15.83;;;13.40;;
13185;SDS011;6658;53.080;7.428;2023-07-29T04:08:48;15.30;;;13.37;;
13185;SDS011;6658;53.080;7.428;2023-07-29T04:11:14;15.03;;;13.17;;
13185;SDS011;6658;53.080;7.428;2023-07-29T04:13:40;17.27;;;13.47;;
13185;SDS011;6658;53.080;7.428;2023-07-29T04:16:06;15.80;;;13.47;;
13185;SDS011;6658;53.080;7.428;2023-07-29T04:18:32;15.53;;;13.20;;
13185;SDS011;6658;53.080;7.428;2023-07-29T04:20:57;14.40;;;12.77;;
13185;SDS011;6658;53.080;7.428;2023-07-29T04:23:23;14.63;;;13.10;;
13185;SDS011;6658;53.080;7.428;2023-07-29T04:25:49;16.37;;;12.93;;
13185;SDS011;6658;53.080;7.428;2023-07-29T04:28:15;15.20;;;12.80;;
13185;SDS011;6658;53.080;7.428;2023-07-29T04:30:41;16.50;;;13.00;;
13185;SDS011;6658;53.080;7.428;2023-07-29T04:33:06;14.93;;;12.70;;
13185;SDS011;6658;53.080;7.428;2023-07-29T04:35:32;13.53;;;11.73;;
13185;SDS011;6658;53.080;7.428;2023-07-29T04:37:58;13.03;;;10.57;;
13185;SDS011;6658;53.080;7.428;2023-07-29T04:40:23;12.47;;;11.13;;
13185;SDS011;6658;53.080;7.428;2023-07-29T04:42:49;12.30;;;11.00;;
13185;SDS011;6658;53.080;7.428;2023-07-29T04:45:16;12.90;;;11.27;;
13185;SDS011;6658;53.080;7.428;2023-07-29T04:47:41;11.80;;;10.60;;
13185;SDS011;6658;53.080;7.428;2023-07-29T04:50:07;11.97;;;10.70;;
13185;SDS011;6658;53.080;7.428;2023-07-29T04:52:33;11.43;;;10.23;;
13185;SDS011;6658;53.080;7.428;2023-07-29T04:54:59;10.50;;;9.50;;
13185;SDS011;6658;53.080;7.428;2023-07-29T04:57:25;11.17;;;10.07;;
13185;SDS011;6658;53.080;7.428;2023-07-29T04:59:50;10.10;;;9.10;;
13185;SDS011;6658;53.080;7.428;2023-07-29T05:02:16;9.90;;;8.90;;
13185;SDS011;6658;53.080;7.428;2023-07-29T05:04:42;9.97;;;8.97;;
13185;SDS011;6658;53.080;7.428;2023-07-29T05:07:08;10.43;;;9.00;;
13185;SDS011;6658;53.080;7.428;2023-07-29T05:09:33;9.97;;;8.93;;
13185;SDS011;6658;53.080;7.428;2023-07-29T05:11:59;8.97;;;8.07;;
13185;SDS011;6658;53.080;7.428;2023-07-29T05:14:25;8.90;;;8.10;;
13185;SDS011;6658;53.080;7.428;2023-07-29T05:16:51;8.97;;;8.17;;
13185;SDS011;6658;53.080;7.428;2023-07-29T05:19:17;8.67;;;7.83;;
13185;SDS011;6658;53.080;7.428;2023-07-29T05:21:43;8.10;;;7.40;;
13185;SDS011;6658;53.080;7.428;2023-07-29T05:24:08;7.63;;;7.03;;
13185;SDS011;6658;53.080;7.428;2023-07-29T05:26:34;7.20;;;6.43;;
13185;SDS011;6658;53.080;7.428;2023-07-29T05:29:00;8.30;;;6.53;;
13185;SDS011;6658;53.080;7.428;2023-07-29T05:31:26;5.70;;;5.30;;
13185;SDS011;6658;53.080;7.428;2023-07-29T05:33:52;5.60;;;5.10;;
13185;SDS011;6658;53.080;7.428;2023-07-29T05:36:18;5.87;;;5.27;;
13185;SDS011;6658;53.080;7.428;2023-07-29T05:38:44;4.90;;;4.50;;
13185;SDS011;6658;53.080;7.428;2023-07-29T05:41:09;4.77;;;4.30;;
13185;SDS011;6658;53.080;7.428;2023-07-29T05:43:35;4.83;;;3.90;;
13185;SDS011;6658;53.080;7.428;2023-07-29T05:46:01;4.00;;;3.70;;
13185;SDS011;6658;53.080;7.428;2023-07-29T05:48:27;3.73;;;3.43;;
13185;SDS011;6658;53.080;7.428;2023-07-29T05:50:52;4.70;;;3.80;;
13185;SDS011;6658;53.080;7.428;2023-07-29T05:53:18;3.60;;;3.30;;
13185;SDS011;6658;53.080;7.428;2023-07-29T05:55:44;3.77;;;3.47;;
13185;SDS011;6658;53.080;7.428;2023-07-29T05:58:10;3.70;;;3.40;;
13185;SDS011;6658;53.080;7.428;2023-07-29T06:00:36;3.93;;;3.60;;
13185;SDS011;6658;53.080;7.428;2023-07-29T06:03:01;3.27;;;2.97;;
13185;SDS011;6658;53.080;7.428;2023-07-29T06:05:27;3.40;;;3.10;;
13185;SDS011;6658;53.080;7.428;2023-07-29T06:07:53;3.17;;;2.93;;
13185;SDS011;6658;53.080;7.428;2023-07-29T06:10:19;3.63;;;3.33;;
13185;SDS011;6658;53.080;7.428;2023-07-29T06:12:45;2.67;;;2.47;;
13185;SDS011;6658;53.080;7.428;2023-07-29T06:15:11;3.30;;;2.73;;
13185;SDS011;6658;53.080;7.428;2023-07-29T06:17:37;3.10;;;2.90;;
13185;SDS011;6658;53.080;7.428;2023-07-29T06:20:04;2.83;;;2.63;;
13185;SDS011;6658;53.080;7.428;2023-07-29T06:22:30;5.13;;;4.33;;
13185;SDS011;6658;53.080;7.428;2023-07-29T06:24:56;2.90;;;2.63;;
13185;SDS011;6658;53.080;7.428;2023-07-29T06:27:22;2.70;;;2.50;;
13185;SDS011;6658;53.080;7.428;2023-07-29T06:29:49;2.73;;;2.53;;
13185;SDS011;6658;53.080;7.428;2023-07-29T06:32:15;2.83;;;2.63;;
13185;SDS011;6658;53.080;7.428;2023-07-29T06:34:41;3.67;;;2.50;;
13185;SDS011;6658;53.080;7.428;2023-07-29T06:37:06;2.50;;;2.30;;
13185;SDS011;6658;53.080;7.428;2023-07-29T06:39:32;2.70;;;2.50;;
13185;SDS011;6658;53.080;7.428;2023-07-29T06:41:58;2.73;;;2.53;;
13185;SDS011;6658;53.080;7.428;2023-07-29T06:44:23;3.30;;;2.37;;
13185;SDS011;6658;53.080;7.428;2023-07-29T06:46:49;2.60;;;2.40;;
13185;SDS011;6658;53.080;7.428;2023-07-29T06:49:15;2.50;;;2.30;;
13185;SDS011;6658;53.080;7.428;2023-07-29T06:51:40;2.73;;;2.20;;
13185;SDS011;6658;53.080;7.428;2023-07-29T06:54:06;2.80;;;1.93;;
13185;SDS011;6658;53.080;7.428;2023-07-29T06:56:32;2.10;;;2.00;;
13185;SDS011;6658;53.080;7.428;2023-07-29T06:58:57;2.10;;;1.90;;
13185;SDS011;6658;53.080;7.428;2023-07-29T07:01:23;2.70;;;1.90;;
13185;SDS011;6658;53.080;7.428;2023-07-29T07:03:48;3.20;;;2.17;;
13185;SDS011;6658;53.080;7.428;2023-07-29T07:06:14;3.10;;;2.00;;
13185;SDS011;6658;53.080;7.428;2023-07-29T07:08:40;2.13;;;1.93;;
13185;SDS011;6658;53.080;7.428;2023-07-29T07:11:06;1.90;;;1.80;;
13185;SDS011;6658;53.080;7.428;2023-07-29T07:13:32;1.90;;;1.60;;
13185;SDS011;6658;53.080;7.428;2023-07-29T07:15:58;2.70;;;1.90;;
13185;SDS011;6658;53.080;7.428;2023-07-29T07:18:24;1.87;;;1.77;;
13185;SDS011;6658;53.080;7.428;2023-07-29T07:20:50;2.93;;;1.90;;
13185;SDS011;6658;53.080;7.428;2023-07-29T07:23:16;2.67;;;1.77;;
13185;SDS011;6658;53.080;7.428;2023-07-29T07:25:43;2.10;;;1.57;;
13185;SDS011;6658;53.080;7.428;2023-07-29T07:28:09;2.60;;;1.90;;
13185;SDS011;6658;53.080;7.428;2023-07-29T07:30:35;2.00;;;1.90;;
13185;SDS011;6658;53.080;7.428;2023-07-29T07:33:04;2.37;;;1.80;;
13185;SDS011;6658;53.080;7.428;2023-07-29T07:35:30;3.20;;;1.90;;
13185;SDS011;6658;53.080;7.428;2023-07-29T07:37:55;3.90;;;1.70;;
13185;SDS011;6658;53.080;7.428;2023-07-29T07:40:21;2.63;;;1.70;;
13185;SDS011;6658;53.080;7.428;2023-07-29T07:42:47;3.40;;;2.10;;
13185;SDS011;6658;53.080;7.428;2023-07-29T07:45:12;2.40;;;1.90;;
13185;SDS011;6658;53.080;7.428;2023-07-29T07:47:38;2.03;;;1.93;;
13185;SDS011;6658;53.080;7.428;2023-07-29T07:50:04;2.30;;;2.10;;
13185;SDS011;6658;53.080;7.428;2023-07-29T07:52:29;3.03;;;1.80;;
13185;SDS011;6658;53.080;7.428;2023-07-29T07:54:55;2.57;;;1.90;;
13185;SDS011;6658;53.080;7.428;2023-07-29T07:57:21;3.37;;;2.07;;
13185;SDS011;6658;53.080;7.428;2023-07-29T07:59:47;2.00;;;1.67;;
13185;SDS011;6658;53.080;7.428;2023-07-29T08:02:13;2.40;;;1.83;;
13185;SDS011;6658;53.080;7.428;2023-07-29T08:04:38;2.80;;;1.90;;
13185;SDS011;6658;53.080;7.428;2023-07-29T08:07:04;1.87;;;1.50;;
13185;SDS011;6658;53.080;7.428;2023-07-29T08:09:30;1.83;;;1.53;;
13185;SDS011;6658;53.080;7.428;2023-07-29T08:11:56;2.13;;;1.80;;
13185;SDS011;6658;53.080;7.428;2023-07-29T08:14:21;2.60;;;1.50;;
13185;SDS011;6658;53.080;7.428;2023-07-29T08:16:47;1.87;;;1.77;;
13185;SDS011;6658;53.080;7.428;2023-07-29T08:19:13;2.73;;;1.93;;
13185;SDS011;6658;53.080;7.428;2023-07-29T08:21:38;2.37;;;1.60;;
13185;SDS011;6658;53.080;7.428;2023-07-29T08:24:04;1.87;;;1.60;;
13185;SDS011;6658;53.080;7.428;2023-07-29T08:26:31;1.90;;;1.80;;
13185;SDS011;6658;53.080;7.428;2023-07-29T08:28:57;3.43;;;1.53;;
13185;SDS011;6658;53.080;7.428;2023-07-29T08:31:23;2.37;;;1.90;;
13185;SDS011;6658;53.080;7.428;2023-07-29T08:33:48;1.53;;;1.43;;
13185;SDS011;6658;53.080;7.428;2023-07-29T08:36:14;3.70;;;1.80;;
13185;SDS011;6658;53.080;7.428;2023-07-29T08:38:40;3.23;;;1.93;;
13185;SDS011;6658;53.080;7.428;2023-07-29T08:43:58;2.13;;;1.50;;
13185;SDS011;6658;53.080;7.428;2023-07-29T08:46:37;3.07;;;1.60;;
13185;SDS011;6658;53.080;7.428;2023-07-29T08:49:03;2.67;;;1.67;;
13185;SDS011;6658;53.080;7.428;2023-07-29T08:51:29;2.67;;;1.70;;
13185;SDS011;6658;53.080;7.428;2023-07-29T08:53:57;3.83;;;2.00;;
13185;SDS011;6658;53.080;7.428;2023-07-29T08:56:24;2.53;;;1.63;;
13185;SDS011;6658;53.080;7.428;2023-07-29T08:58:50;3.30;;;1.83;;
13185;SDS011;6658;53.080;7.428;2023-07-29T09:01:17;2.97;;;2.00;;
13185;SDS011;6658;53.080;7.428;2023-07-29T09:03:43;2.63;;;1.80;;
13185;SDS011;6658;53.080;7.428;2023-07-29T09:06:08;2.20;;;1.80;;
13185;SDS011;6658;53.080;7.428;2023-07-29T09:08:34;2.80;;;1.70;;
13185;SDS011;6658;53.080;7.428;2023-07-29T09:11:00;2.30;;;1.67;;
13185;SDS011;6658;53.080;7.428;2023-07-29T09:13:26;2.20;;;1.70;;
13185;SDS011;6658;53.080;7.428;2023-07-29T09:15:56;1.87;;;1.77;;
13185;SDS011;6658;53.080;7.428;2023-07-29T09:18:23;2.10;;;1.63;;
13185;SDS011;6658;53.080;7.428;2023-07-29T09:20:50;2.90;;;1.37;;
13185;SDS011;6658;53.080;7.428;2023-07-29T09:23:16;3.70;;;1.70;;
13185;SDS011;6658;53.080;7.428;2023-07-29T09:25:42;2.07;;;1.50;;
13185;SDS011;6658;53.080;7.428;2023-07-29T09:28:11;2.17;;;1.70;;
13185;SDS011;6658;53.080;7.428;2023-07-29T09:30:39;3.10;;;1.90;;
13185;SDS011;6658;53.080;7.428;2023-07-29T09:33:05;2.87;;;1.80;;
13185;SDS011;6658;53.080;7.428;2023-07-29T09:35:35;3.27;;;1.80;;
13185;SDS011;6658;53.080;7.428;2023-07-29T09:38:02;2.50;;;1.83;;
13185;SDS011;6658;53.080;7.428;2023-07-29T09:40:38;2.43;;;1.90;;
13185;SDS011;6658;53.080;7.428;2023-07-29T09:43:05;1.80;;;1.50;;
13185;SDS011;6658;53.080;7.428;2023-07-29T09:45:35;1.60;;;1.50;;
13185;SDS011;6658;53.080;7.428;2023-07-29T09:48:03;2.70;;;1.73;;
13185;SDS011;6658;53.080;7.428;2023-07-29T09:50:35;2.73;;;1.90;;
13185;SDS011;6658;53.080;7.428;2023-07-29T09:53:01;3.63;;;1.70;;
13185;SDS011;6658;53.080;7.428;2023-07-29T09:55:28;1.97;;;1.30;;
13185;SDS011;6658;53.080;7.428;2023-07-29T09:57:57;1.35;;;1.23;;
13185;SDS011;6658;53.080;7.428;2023-07-29T10:00:29;2.13;;;1.60;;
13185;SDS011;6658;53.080;7.428;2023-07-29T10:02:56;1.85;;;1.40;;
13185;SDS011;6658;53.080;7.428;2023-07-29T10:05:22;1.50;;;1.38;;
13185;SDS011;6658;53.080;7.428;2023-07-29T10:07:50;1.85;;;1.50;;
13185;SDS011;6658;53.080;7.428;2023-07-29T10:10:16;2.10;;;1.73;;
13185;SDS011;6658;53.080;7.428;2023-07-29T10:12:42;2.33;;;1.43;;
13185;SDS011;6658;53.080;7.428;2023-07-29T10:15:08;2.20;;;1.30;;
13185;SDS011;6658;53.080;7.428;2023-07-29T10:17:35;1.77;;;1.50;;
13185;SDS011;6658;53.080;7.428;2023-07-29T10:20:09;1.63;;;1.25;;
13185;SDS011;6658;53.080;7.428;2023-07-29T10:22:39;3.33;;;1.47;;
13185;SDS011;6658;53.080;7.428;2023-07-29T10:25:10;2.53;;;1.13;;
13185;SDS011;6658;53.080;7.428;2023-07-29T10:28:27;2.33;;;1.40;;
13185;SDS011;6658;53.080;7.428;2023-07-29T10:30:30;1.55;;;1.30;;
13185;SDS011;6658;53.080;7.428;2023-07-29T10:33:02;2.60;;;1.30;;
13185;SDS011;6658;53.080;7.428;2023-07-29T10:35:29;1.45;;;1.30;;
13185;SDS011;6658;53.080;7.428;2023-07-29T10:37:57;1.95;;;1.25;;
13185;SDS011;6658;53.080;7.428;2023-07-29T10:40:22;2.67;;;1.52;;
13185;SDS011;6658;53.080;7.428;2023-07-29T10:43:02;1.38;;;1.27;;
13185;SDS011;6658;53.080;7.428;2023-07-29T10:45:38;1.42;;;1.20;;
13185;SDS011;6658;53.080;7.428;2023-07-29T10:48:39;1.33;;;1.23;;
13185;SDS011;6658;53.080;7.428;2023-07-29T10:53:54;2.20;;;1.17;;
13185;SDS011;6658;53.080;7.428;2023-07-29T10:56:32;1.42;;;1.00;;
13185;SDS011;6658;53.080;7.428;2023-07-29T10:59:02;1.15;;;1.05;;
13185;SDS011;6658;53.080;7.428;2023-07-29T11:01:38;1.90;;;1.13;;
13185;SDS011;6658;53.080;7.428;2023-07-29T11:17:30;1.40;;;1.30;;
13185;SDS011;6658;53.080;7.428;2023-07-29T11:20:00;1.40;;;0.93;;
13185;SDS011;6658;53.080;7.428;2023-07-29T11:22:26;1.23;;;1.13;;
13185;SDS011;6658;53.080;7.428;2023-07-29T11:24:53;1.42;;;1.30;;
13185;SDS011;6658;53.080;7.428;2023-07-29T11:27:19;1.20;;;1.10;;
13185;SDS011;6658;53.080;7.428;2023-07-29T11:29:44;3.38;;;1.20;;
13185;SDS011;6658;53.080;7.428;2023-07-29T11:32:11;1.92;;;1.02;;
13185;SDS011;6658;53.080;7.428;2023-07-29T11:34:37;1.02;;;0.95;;
13185;SDS011;6658;53.080;7.428;2023-07-29T11:37:02;0.85;;;0.82;;
13185;SDS011;6658;53.080;7.428;2023-07-29T11:39:31;1.52;;;1.00;;
13185;SDS011;6658;53.080;7.428;2023-07-29T11:41:57;0.90;;;0.90;;
13185;SDS011;6658;53.080;7.428;2023-07-29T11:44:24;1.05;;;0.85;;
13185;SDS011;6658;53.080;7.428;2023-07-29T11:46:50;1.83;;;1.08;;
13185;SDS011;6658;53.080;7.428;2023-07-29T11:49:16;2.38;;;0.90;;
13185;SDS011;6658;53.080;7.428;2023-07-29T11:51:41;1.08;;;0.98;;
13185;SDS011;6658;53.080;7.428;2023-07-29T11:54:08;2.60;;;0.98;;
13185;SDS011;6658;53.080;7.428;2023-07-29T11:56:34;1.10;;;1.00;;
13185;SDS011;6658;53.080;7.428;2023-07-29T11:59:01;1.55;;;0.85;;
13185;SDS011;6658;53.080;7.428;2023-07-29T12:01:28;0.80;;;0.77;;
13185;SDS011;6658;53.080;7.428;2023-07-29T12:03:54;1.50;;;0.80;;
13185;SDS011;6658;53.080;7.428;2023-07-29T12:06:22;1.75;;;0.95;;
13185;SDS011;6658;53.080;7.428;2023-07-29T12:08:50;1.27;;;1.00;;
13185;SDS011;6658;53.080;7.428;2023-07-29T12:11:16;2.13;;;0.77;;
13185;SDS011;6658;53.080;7.428;2023-07-29T12:13:42;1.08;;;0.95;;
13185;SDS011;6658;53.080;7.428;2023-07-29T12:16:08;1.10;;;1.00;;
13185;SDS011;6658;53.080;7.428;2023-07-29T12:18:35;1.42;;;0.93;;
13185;SDS011;6658;53.080;7.428;2023-07-29T12:21:01;1.58;;;0.90;;
13185;SDS011;6658;53.080;7.428;2023-07-29T12:23:28;0.93;;;0.88;;
13185;SDS011;6658;53.080;7.428;2023-07-29T12:25:58;1.30;;;1.20;;
13185;SDS011;6658;53.080;7.428;2023-07-29T12:28:25;5.77;;;1.53;;
13185;SDS011;6658;53.080;7.428;2023-07-29T12:30:54;3.40;;;1.80;;
13185;SDS011;6658;53.080;7.428;2023-07-29T12:33:36;1.87;;;1.63;;
13185;SDS011;6658;53.080;7.428;2023-07-29T12:36:07;2.17;;;1.23;;
13185;SDS011;6658;53.080;7.428;2023-07-29T12:38:33;1.47;;;1.20;;
13185;SDS011;6658;53.080;7.428;2023-07-29T12:40:58;2.43;;;1.40;;
13185;SDS011;6658;53.080;7.428;2023-07-29T12:43:24;1.97;;;1.30;;
13185;SDS011;6658;53.080;7.428;2023-07-29T12:45:51;1.80;;;1.40;;
13185;SDS011;6658;53.080;7.428;2023-07-29T12:48:16;1.20;;;1.10;;
13185;SDS011;6658;53.080;7.428;2023-07-29T12:50:42;2.50;;;1.50;;
13185;SDS011;6658;53.080;7.428;2023-07-29T12:53:09;1.30;;;1.20;;
13185;SDS011;6658;53.080;7.428;2023-07-29T12:55:37;2.80;;;1.33;;
13185;SDS011;6658;53.080;7.428;2023-07-29T12:58:03;1.30;;;1.20;;
13185;SDS011;6658;53.080;7.428;2023-07-29T13:00:29;1.90;;;1.40;;
13185;SDS011;6658;53.080;7.428;2023-07-29T13:02:55;1.67;;;1.50;;
13185;SDS011;6658;53.080;7.428;2023-07-29T13:05:21;2.13;;;1.40;;
13185;SDS011;6658;53.080;7.428;2023-07-29T13:07:47;3.03;;;1.47;;
13185;SDS011;6658;53.080;7.428;2023-07-29T13:10:13;2.27;;;1.40;;
13185;SDS011;6658;53.080;7.428;2023-07-29T13:12:39;3.03;;;1.23;;
13185;SDS011;6658;53.080;7.428;2023-07-29T13:15:05;1.50;;;1.30;;
13185;SDS011;6658;53.080;7.428;2023-07-29T13:17:31;2.17;;;1.30;;
13185;SDS011;6658;53.080;7.428;2023-07-29T13:19:58;1.77;;;1.50;;
13185;SDS011;6658;53.080;7.428;2023-07-29T13:22:23;1.37;;;1.27;;
13185;SDS011;6658;53.080;7.428;2023-07-29T13:24:49;2.53;;;1.20;;
13185;SDS011;6658;53.080;7.428;2023-07-29T13:27:15;2.13;;;1.60;;
13185;SDS011;6658;53.080;7.428;2023-07-29T13:29:41;1.87;;;1.20;;
13185;SDS011;6658;53.080;7.428;2023-07-29T13:32:08;1.53;;;1.20;;
13185;SDS011;6658;53.080;7.428;2023-07-29T13:34:34;2.27;;;1.40;;
13185;SDS011;6658;53.080;7.428;2023-07-29T13:37:00;1.50;;;1.40;;
13185;SDS011;6658;53.080;7.428;2023-07-29T13:39:26;1.57;;;1.20;;
13185;SDS011;6658;53.080;7.428;2023-07-29T13:41:52;1.50;;;1.40;;
13185;SDS011;6658;53.080;7.428;2023-07-29T13:44:18;1.60;;;1.30;;
13185;SDS011;6658;53.080;7.428;2023-07-29T13:46:44;1.60;;;1.40;;
13185;SDS011;6658;53.080;7.428;2023-07-29T13:49:10;1.67;;;1.20;;
13185;SDS011;6658;53.080;7.428;2023-07-29T13:51:36;2.57;;;1.37;;
13185;SDS011;6658;53.080;7.428;2023-07-29T13:54:02;1.23;;;1.13;;
13185;SDS011;6658;53.080;7.428;2023-07-29T13:56:27;1.67;;;1.30;;
13185;SDS011;6658;53.080;7.428;2023-07-29T13:58:53;1.33;;;1.13;;
13185;SDS011;6658;53.080;7.428;2023-07-29T14:01:19;1.70;;;1.40;;
13185;SDS011;6658;53.080;7.428;2023-07-29T14:03:44;1.50;;;1.40;;
13185;SDS011;6658;53.080;7.428;2023-07-29T14:06:10;1.23;;;1.10;;
13185;SDS011;6658;53.080;7.428;2023-07-29T14:08:36;3.00;;;1.40;;
13185;SDS011;6658;53.080;7.428;2023-07-29T14:11:01;1.40;;;1.30;;
13185;SDS011;6658;53.080;7.428;2023-07-29T14:13:27;2.03;;;1.43;;
13185;SDS011;6658;53.080;7.428;2023-07-29T14:15:53;1.87;;;1.23;;
13185;SDS011;6658;53.080;7.428;2023-07-29T14:18:18;1.30;;;1.20;;
13185;SDS011;6658;53.080;7.428;2023-07-29T14:20:44;1.63;;;1.40;;
13185;SDS011;6658;53.080;7.428;2023-07-29T14:23:10;1.47;;;1.10;;
13185;SDS011;6658;53.080;7.428;2023-07-29T14:25:36;1.47;;;1.10;;
13185;SDS011;6658;53.080;7.428;2023-07-29T14:28:01;1.47;;;1.10;;
13185;SDS011;6658;53.080;7.428;2023-07-29T14:30:27;2.30;;;1.30;;
13185;SDS011;6658;53.080;7.428;2023-07-29T14:32:53;1.00;;;0.90;;
13185;SDS011;6658;53.080;7.428;2023-07-29T14:35:19;0.97;;;0.80;;
13185;SDS011;6658;53.080;7.428;2023-07-29T14:37:44;1.73;;;1.03;;
13185;SDS011;6658;53.080;7.428;2023-07-29T14:40:10;1.47;;;1.17;;
13185;SDS011;6658;53.080;7.428;2023-07-29T14:42:36;1.17;;;1.00;;
13185;SDS011;6658;53.080;7.428;2023-07-29T14:45:01;1.77;;;1.00;;
13185;SDS011;6658;53.080;7.428;2023-07-29T14:47:27;2.37;;;1.30;;
13185;SDS011;6658;53.080;7.428;2023-07-29T14:49:53;1.20;;;1.10;;
13185;SDS011;6658;53.080;7.428;2023-07-29T14:52:18;1.20;;;1.10;;
13185;SDS011;6658;53.080;7.428;2023-07-29T14:54:44;2.30;;;1.30;;
13185;SDS011;6658;53.080;7.428;2023-07-29T14:57:10;3.00;;;1.70;;
13185;SDS011;6658;53.080;7.428;2023-07-29T14:59:36;2.17;;;1.57;;
13185;SDS011;6658;53.080;7.428;2023-07-29T15:02:02;3.50;;;1.80;;
13185;SDS011;6658;53.080;7.428;2023-07-29T15:04:27;3.10;;;1.33;;
13185;SDS011;6658;53.080;7.428;2023-07-29T15:06:53;1.90;;;1.53;;
13185;SDS011;6658;53.080;7.428;2023-07-29T15:09:19;2.00;;;1.57;;
13185;SDS011;6658;53.080;7.428;2023-07-29T15:11:44;1.73;;;1.20;;
13185;SDS011;6658;53.080;7.428;2023-07-29T15:14:10;2.97;;;1.37;;
13185;SDS011;6658;53.080;7.428;2023-07-29T15:16:35;1.47;;;1.00;;